sensor_id;sensor_type;location;lat;lon;timestamp;P1;durP1;ratioP1;P2;durP2;ratioP2
5967;SDS011;3010;51.028;4.170;2023-01-10T00:00:56;11.80;;;3.60;;
5967;SDS011;3010;51.028;4.170;2023-01-10T00:03:24;6.43;;;3.67;;
5967;SDS011;3010;51.028;4.170;2023-01-10T00:05:50;9.23;;;3.87;;
5967;SDS011;3010;51.028;4.170;2023-01-10T00:08:17;13.40;;;3.50;;
5967;SDS011;3010;51.028;4.170;2023-01-10T00:10:44;11.30;;;3.90;;
5967;SDS011;3010;51.028;4.170;2023-01-10T00:13:14;13.60;;;4.20;;
5967;SDS011;3010;51.028;4.170;2023-01-10T00:15:52;8.73;;;3.70;;
5967;SDS011;3010;51.028;4.170;2023-01-10T00:18:18;11.67;;;3.27;;
5967;SDS011;3010;51.028;4.170;2023-01-10T00:20:46;10.67;;;3.70;;
5967;SDS011;3010;51.028;4.170;2023-01-10T00:23:14;11.93;;;4.07;;
5967;SDS011;3010;51.028;4.170;2023-01-10T00:25:40;12.13;;;3.93;;
5967;SDS011;3010;51.028;4.170;2023-01-10T00:28:07;8.97;;;3.57;;
5967;SDS011;3010;51.028;4.170;2023-01-10T00:30:48;12.57;;;4.23;;
5967;SDS011;3010;51.028;4.170;2023-01-10T00:33:15;15.32;;;4.90;;
5967;SDS011;3010;51.028;4.170;2023-01-10T00:35:41;14.37;;;4.23;;
5967;SDS011;3010;51.028;4.170;2023-01-10T00:38:08;15.70;;;4.65;;
5967;SDS011;3010;51.028;4.170;2023-01-10T00:40:34;12.83;;;3.97;;
5967;SDS011;3010;51.028;4.170;2023-01-10T00:43:01;7.43;;;3.80;;
5967;SDS011;3010;51.028;4.170;2023-01-10T00:45:46;10.93;;;4.03;;
5967;SDS011;3010;51.028;4.170;2023-01-10T00:48:13;10.20;;;3.43;;
5967;SDS011;3010;51.028;4.170;2023-01-10T00:50:40;17.03;;;4.10;;
5967;SDS011;3010;51.028;4.170;2023-01-10T00:53:06;17.00;;;4.95;;
5967;SDS011;3010;51.028;4.170;2023-01-10T00:55:32;13.43;;;3.87;;
5967;SDS011;3010;51.028;4.170;2023-01-10T00:57:59;11.07;;;3.80;;
5967;SDS011;3010;51.028;4.170;2023-01-10T01:00:26;13.23;;;3.20;;
5967;SDS011;3010;51.028;4.170;2023-01-10T01:02:52;16.27;;;3.87;;
5967;SDS011;3010;51.028;4.170;2023-01-10T01:05:19;18.23;;;4.03;;
5967;SDS011;3010;51.028;4.170;2023-01-10T01:07:48;14.43;;;4.13;;
5967;SDS011;3010;51.028;4.170;2023-01-10T01:10:15;18.03;;;3.87;;
5967;SDS011;3010;51.028;4.170;2023-01-10T01:12:51;10.97;;;3.87;;
5967;SDS011;3010;51.028;4.170;2023-01-10T01:15:17;14.80;;;3.83;;
5967;SDS011;3010;51.028;4.170;2023-01-10T01:17:44;11.00;;;4.10;;
5967;SDS011;3010;51.028;4.170;2023-01-10T01:20:10;8.03;;;4.07;;
5967;SDS011;3010;51.028;4.170;2023-01-10T01:22:37;17.73;;;4.50;;
5967;SDS011;3010;51.028;4.170;2023-01-10T01:25:03;19.00;;;5.03;;
5967;SDS011;3010;51.028;4.170;2023-01-10T01:27:30;17.23;;;4.10;;
5967;SDS011;3010;51.028;4.170;2023-01-10T01:29:57;15.20;;;4.20;;
5967;SDS011;3010;51.028;4.170;2023-01-10T01:32:23;15.83;;;3.90;;
5967;SDS011;3010;51.028;4.170;2023-01-10T01:34:50;15.60;;;3.63;;
5967;SDS011;3010;51.028;4.170;2023-01-10T01:37:16;17.80;;;4.00;;
5967;SDS011;3010;51.028;4.170;2023-01-10T01:39:43;17.07;;;5.43;;
5967;SDS011;3010;51.028;4.170;2023-01-10T01:42:26;15.27;;;4.73;;
5967;SDS011;3010;51.028;4.170;2023-01-10T01:47:37;20.20;;;4.77;;
5967;SDS011;3010;51.028;4.170;2023-01-10T01:50:03;19.73;;;4.80;;
5967;SDS011;3010;51.028;4.170;2023-01-10T01:52:30;15.00;;;3.87;;
5967;SDS011;3010;51.028;4.170;2023-01-10T01:54:56;11.03;;;3.90;;
5967;SDS011;3010;51.028;4.170;2023-01-10T01:57:23;22.02;;;5.50;;
5967;SDS011;3010;51.028;4.170;2023-01-10T01:59:49;18.13;;;5.23;;
5967;SDS011;3010;51.028;4.170;2023-01-10T02:02:17;19.43;;;4.97;;
5967;SDS011;3010;51.028;4.170;2023-01-10T02:04:55;21.97;;;5.03;;
5967;SDS011;3010;51.028;4.170;2023-01-10T02:07:24;13.40;;;3.97;;
5967;SDS011;3010;51.028;4.170;2023-01-10T02:10:35;15.57;;;4.67;;
5967;SDS011;3010;51.028;4.170;2023-01-10T02:12:31;13.13;;;4.03;;
5967;SDS011;3010;51.028;4.170;2023-01-10T02:14:58;16.70;;;4.23;;
5967;SDS011;3010;51.028;4.170;2023-01-10T02:17:24;11.87;;;4.13;;
5967;SDS011;3010;51.028;4.170;2023-01-10T02:19:52;20.93;;;4.83;;
5967;SDS011;3010;51.028;4.170;2023-01-10T02:27:56;14.80;;;4.53;;
5967;SDS011;3010;51.028;4.170;2023-01-10T02:33:18;21.03;;;4.87;;
5967;SDS011;3010;51.028;4.170;2023-01-10T02:35:48;14.93;;;5.23;;
5967;SDS011;3010;51.028;4.170;2023-01-10T02:38:21;24.85;;;5.85;;
5967;SDS011;3010;51.028;4.170;2023-01-10T02:41:46;16.77;;;4.73;;
5967;SDS011;3010;51.028;4.170;2023-01-10T02:43:52;19.10;;;4.57;;
5967;SDS011;3010;51.028;4.170;2023-01-10T02:46:19;26.20;;;6.07;;
5967;SDS011;3010;51.028;4.170;2023-01-10T02:48:44;17.87;;;4.27;;
5967;SDS011;3010;51.028;4.170;2023-01-10T02:51:18;15.80;;;4.47;;
5967;SDS011;3010;51.028;4.170;2023-01-10T02:53:49;12.00;;;4.70;;
5967;SDS011;3010;51.028;4.170;2023-01-10T03:07:13;16.23;;;4.30;;
5967;SDS011;3010;51.028;4.170;2023-01-10T03:09:46;16.53;;;3.80;;
5967;SDS011;3010;51.028;4.170;2023-01-10T03:12:22;14.57;;;4.10;;
5967;SDS011;3010;51.028;4.170;2023-01-10T03:14:46;22.97;;;5.00;;
5967;SDS011;3010;51.028;4.170;2023-01-10T03:17:13;14.43;;;3.63;;
5967;SDS011;3010;51.028;4.170;2023-01-10T03:19:41;21.83;;;4.70;;
5967;SDS011;3010;51.028;4.170;2023-01-10T03:22:06;21.77;;;5.03;;
5967;SDS011;3010;51.028;4.170;2023-01-10T03:24:38;17.43;;;4.50;;
5967;SDS011;3010;51.028;4.170;2023-01-10T03:27:18;13.60;;;4.40;;
5967;SDS011;3010;51.028;4.170;2023-01-10T03:32:07;15.60;;;4.40;;
5967;SDS011;3010;51.028;4.170;2023-01-10T03:34:33;21.90;;;4.43;;
5967;SDS011;3010;51.028;4.170;2023-01-10T03:39:40;20.93;;;4.40;;
5967;SDS011;3010;51.028;4.170;2023-01-10T03:44:57;18.00;;;4.43;;
5967;SDS011;3010;51.028;4.170;2023-01-10T03:50:08;14.50;;;4.30;;
5967;SDS011;3010;51.028;4.170;2023-01-10T03:52:33;19.60;;;4.77;;
5967;SDS011;3010;51.028;4.170;2023-01-10T03:55:00;29.50;;;4.93;;
5967;SDS011;3010;51.028;4.170;2023-01-10T03:57:27;22.63;;;5.13;;
5967;SDS011;3010;51.028;4.170;2023-01-10T03:59:54;18.50;;;4.60;;
5967;SDS011;3010;51.028;4.170;2023-01-10T04:02:20;15.80;;;5.03;;
5967;SDS011;3010;51.028;4.170;2023-01-10T04:04:46;31.77;;;5.17;;
5967;SDS011;3010;51.028;4.170;2023-01-10T04:07:13;23.67;;;5.47;;
5967;SDS011;3010;51.028;4.170;2023-01-10T04:09:40;31.83;;;4.80;;
5967;SDS011;3010;51.028;4.170;2023-01-10T04:12:06;25.83;;;5.50;;
5967;SDS011;3010;51.028;4.170;2023-01-10T04:14:33;24.47;;;5.13;;
5967;SDS011;3010;51.028;4.170;2023-01-10T04:16:59;15.20;;;4.37;;
5967;SDS011;3010;51.028;4.170;2023-01-10T04:19:26;19.70;;;4.83;;
5967;SDS011;3010;51.028;4.170;2023-01-10T04:21:53;14.57;;;5.17;;
5967;SDS011;3010;51.028;4.170;2023-01-10T04:24:19;22.03;;;4.67;;
5967;SDS011;3010;51.028;4.170;2023-01-10T04:26:46;18.97;;;3.83;;
5967;SDS011;3010;51.028;4.170;2023-01-10T04:29:12;27.75;;;6.53;;
5967;SDS011;3010;51.028;4.170;2023-01-10T04:31:40;30.33;;;5.80;;
5967;SDS011;3010;51.028;4.170;2023-01-10T04:34:06;19.47;;;5.30;;
5967;SDS011;3010;51.028;4.170;2023-01-10T04:36:32;27.77;;;4.70;;
5967;SDS011;3010;51.028;4.170;2023-01-10T04:38:59;21.13;;;4.73;;
5967;SDS011;3010;51.028;4.170;2023-01-10T04:41:25;20.80;;;4.67;;
5967;SDS011;3010;51.028;4.170;2023-01-10T04:43:52;18.33;;;5.40;;
5967;SDS011;3010;51.028;4.170;2023-01-10T04:46:18;17.97;;;5.10;;
5967;SDS011;3010;51.028;4.170;2023-01-10T04:48:45;28.40;;;6.45;;
5967;SDS011;3010;51.028;4.170;2023-01-10T04:51:12;23.33;;;5.90;;
5967;SDS011;3010;51.028;4.170;2023-01-10T04:53:38;31.40;;;7.03;;
5967;SDS011;3010;51.028;4.170;2023-01-10T04:56:05;20.93;;;5.30;;
5967;SDS011;3010;51.028;4.170;2023-01-10T04:58:32;27.95;;;6.70;;
5967;SDS011;3010;51.028;4.170;2023-01-10T05:01:10;18.73;;;5.43;;
5967;SDS011;3010;51.028;4.170;2023-01-10T05:03:36;30.90;;;6.65;;
5967;SDS011;3010;51.028;4.170;2023-01-10T05:06:03;21.27;;;5.37;;
5967;SDS011;3010;51.028;4.170;2023-01-10T05:08:29;22.53;;;5.33;;
5967;SDS011;3010;51.028;4.170;2023-01-10T05:10:56;13.77;;;4.80;;
5967;SDS011;3010;51.028;4.170;2023-01-10T05:13:22;23.17;;;5.00;;
5967;SDS011;3010;51.028;4.170;2023-01-10T05:15:49;24.43;;;4.67;;
5967;SDS011;3010;51.028;4.170;2023-01-10T05:18:15;26.37;;;6.20;;
5967;SDS011;3010;51.028;4.170;2023-01-10T05:20:42;22.43;;;4.97;;
5967;SDS011;3010;51.028;4.170;2023-01-10T05:23:09;21.17;;;4.93;;
5967;SDS011;3010;51.028;4.170;2023-01-10T05:25:35;20.97;;;4.97;;
5967;SDS011;3010;51.028;4.170;2023-01-10T05:28:02;17.87;;;4.83;;
5967;SDS011;3010;51.028;4.170;2023-01-10T05:30:28;23.63;;;5.20;;
5967;SDS011;3010;51.028;4.170;2023-01-10T05:32:55;19.70;;;6.10;;
5967;SDS011;3010;51.028;4.170;2023-01-10T05:35:21;22.50;;;5.43;;
5967;SDS011;3010;51.028;4.170;2023-01-10T05:37:48;23.27;;;5.30;;
5967;SDS011;3010;51.028;4.170;2023-01-10T05:40:15;29.03;;;6.23;;
5967;SDS011;3010;51.028;4.170;2023-01-10T05:42:41;20.73;;;6.00;;
5967;SDS011;3010;51.028;4.170;2023-01-10T05:45:08;20.03;;;5.57;;
5967;SDS011;3010;51.028;4.170;2023-01-10T05:47:34;21.80;;;5.27;;
5967;SDS011;3010;51.028;4.170;2023-01-10T05:50:01;22.30;;;6.10;;
5967;SDS011;3010;51.028;4.170;2023-01-10T05:52:28;25.87;;;5.47;;
5967;SDS011;3010;51.028;4.170;2023-01-10T05:54:54;23.53;;;6.53;;
5967;SDS011;3010;51.028;4.170;2023-01-10T05:57:21;29.90;;;5.23;;
5967;SDS011;3010;51.028;4.170;2023-01-10T05:59:47;36.33;;;7.62;;
5967;SDS011;3010;51.028;4.170;2023-01-10T06:02:14;23.30;;;5.80;;
5967;SDS011;3010;51.028;4.170;2023-01-10T06:04:40;23.03;;;6.07;;
5967;SDS011;3010;51.028;4.170;2023-01-10T06:07:07;34.63;;;5.93;;
5967;SDS011;3010;51.028;4.170;2023-01-10T06:09:34;20.37;;;4.53;;
5967;SDS011;3010;51.028;4.170;2023-01-10T06:12:00;26.73;;;5.40;;
5967;SDS011;3010;51.028;4.170;2023-01-10T06:14:27;27.90;;;5.63;;
5967;SDS011;3010;51.028;4.170;2023-01-10T06:16:54;23.00;;;5.63;;
5967;SDS011;3010;51.028;4.170;2023-01-10T06:19:20;21.00;;;5.23;;
5967;SDS011;3010;51.028;4.170;2023-01-10T06:21:47;23.60;;;4.87;;
5967;SDS011;3010;51.028;4.170;2023-01-10T06:24:13;33.20;;;6.78;;
5967;SDS011;3010;51.028;4.170;2023-01-10T06:26:40;19.70;;;4.93;;
5967;SDS011;3010;51.028;4.170;2023-01-10T06:29:07;12.57;;;5.23;;
5967;SDS011;3010;51.028;4.170;2023-01-10T06:31:33;22.53;;;5.77;;
5967;SDS011;3010;51.028;4.170;2023-01-10T06:34:00;28.90;;;6.22;;
5967;SDS011;3010;51.028;4.170;2023-01-10T06:36:26;29.87;;;5.80;;
5967;SDS011;3010;51.028;4.170;2023-01-10T06:38:53;22.97;;;5.50;;
5967;SDS011;3010;51.028;4.170;2023-01-10T06:41:19;15.93;;;5.23;;
5967;SDS011;3010;51.028;4.170;2023-01-10T06:43:48;29.08;;;7.03;;
5967;SDS011;3010;51.028;4.170;2023-01-10T06:46:13;22.83;;;5.53;;
5967;SDS011;3010;51.028;4.170;2023-01-10T06:48:39;23.73;;;5.67;;
5967;SDS011;3010;51.028;4.170;2023-01-10T06:51:06;17.53;;;4.93;;
5967;SDS011;3010;51.028;4.170;2023-01-10T06:53:34;19.47;;;4.73;;
5967;SDS011;3010;51.028;4.170;2023-01-10T06:56:00;23.77;;;5.10;;
5967;SDS011;3010;51.028;4.170;2023-01-10T06:58:27;21.83;;;5.70;;
5967;SDS011;3010;51.028;4.170;2023-01-10T07:00:53;21.73;;;5.73;;
5967;SDS011;3010;51.028;4.170;2023-01-10T07:03:20;22.90;;;4.90;;
5967;SDS011;3010;51.028;4.170;2023-01-10T07:05:47;23.63;;;5.20;;
5967;SDS011;3010;51.028;4.170;2023-01-10T07:08:13;28.33;;;6.32;;
5967;SDS011;3010;51.028;4.170;2023-01-10T07:10:40;33.33;;;5.63;;
5967;SDS011;3010;51.028;4.170;2023-01-10T07:13:07;27.50;;;5.03;;
5967;SDS011;3010;51.028;4.170;2023-01-10T07:15:33;24.43;;;4.87;;
5967;SDS011;3010;51.028;4.170;2023-01-10T07:18:00;29.35;;;5.82;;
5967;SDS011;3010;51.028;4.170;2023-01-10T07:20:26;25.07;;;5.37;;
5967;SDS011;3010;51.028;4.170;2023-01-10T07:22:53;28.85;;;6.12;;
5967;SDS011;3010;51.028;4.170;2023-01-10T07:25:22;18.87;;;5.50;;
5967;SDS011;3010;51.028;4.170;2023-01-10T07:27:48;25.42;;;6.30;;
5967;SDS011;3010;51.028;4.170;2023-01-10T07:30:15;29.52;;;6.10;;
5967;SDS011;3010;51.028;4.170;2023-01-10T07:32:42;18.60;;;4.47;;
5967;SDS011;3010;51.028;4.170;2023-01-10T07:35:08;18.83;;;4.87;;
5967;SDS011;3010;51.028;4.170;2023-01-10T07:37:35;18.60;;;5.37;;
5967;SDS011;3010;51.028;4.170;2023-01-10T07:40:01;22.27;;;5.07;;
5967;SDS011;3010;51.028;4.170;2023-01-10T07:42:28;20.07;;;4.67;;
5967;SDS011;3010;51.028;4.170;2023-01-10T07:44:55;21.30;;;5.10;;
5967;SDS011;3010;51.028;4.170;2023-01-10T07:47:21;15.67;;;5.13;;
5967;SDS011;3010;51.028;4.170;2023-01-10T07:49:48;13.10;;;4.70;;
5967;SDS011;3010;51.028;4.170;2023-01-10T07:52:14;15.27;;;4.23;;
5967;SDS011;3010;51.028;4.170;2023-01-10T07:54:41;17.70;;;5.43;;
5967;SDS011;3010;51.028;4.170;2023-01-10T07:57:07;20.17;;;4.93;;
5967;SDS011;3010;51.028;4.170;2023-01-10T07:59:34;14.93;;;5.03;;
5967;SDS011;3010;51.028;4.170;2023-01-10T08:02:01;17.30;;;4.57;;
5967;SDS011;3010;51.028;4.170;2023-01-10T08:04:27;18.37;;;4.33;;
5967;SDS011;3010;51.028;4.170;2023-01-10T08:06:54;14.77;;;3.97;;
5967;SDS011;3010;51.028;4.170;2023-01-10T08:09:20;20.37;;;5.30;;
5967;SDS011;3010;51.028;4.170;2023-01-10T08:11:47;26.47;;;5.80;;
5967;SDS011;3010;51.028;4.170;2023-01-10T08:14:14;19.60;;;5.37;;
5967;SDS011;3010;51.028;4.170;2023-01-10T08:16:40;26.67;;;6.50;;
5967;SDS011;3010;51.028;4.170;2023-01-10T08:19:07;24.40;;;5.40;;
5967;SDS011;3010;51.028;4.170;2023-01-10T08:21:33;19.77;;;5.03;;
5967;SDS011;3010;51.028;4.170;2023-01-10T08:24:00;24.97;;;5.13;;
5967;SDS011;3010;51.028;4.170;2023-01-10T08:26:27;17.73;;;4.87;;
5967;SDS011;3010;51.028;4.170;2023-01-10T08:28:53;16.97;;;4.40;;
5967;SDS011;3010;51.028;4.170;2023-01-10T08:31:20;13.10;;;5.07;;
5967;SDS011;3010;51.028;4.170;2023-01-10T08:33:46;20.47;;;5.07;;
5967;SDS011;3010;51.028;4.170;2023-01-10T08:36:13;17.80;;;5.47;;
5967;SDS011;3010;51.028;4.170;2023-01-10T08:38:39;22.53;;;4.90;;
5967;SDS011;3010;51.028;4.170;2023-01-10T08:41:06;11.73;;;4.43;;
5967;SDS011;3010;51.028;4.170;2023-01-10T08:43:33;17.07;;;5.20;;
5967;SDS011;3010;51.028;4.170;2023-01-10T08:45:59;18.70;;;5.30;;
5967;SDS011;3010;51.028;4.170;2023-01-10T08:48:26;14.23;;;4.30;;
5967;SDS011;3010;51.028;4.170;2023-01-10T08:50:52;19.67;;;4.33;;
5967;SDS011;3010;51.028;4.170;2023-01-10T08:53:19;13.47;;;4.43;;
5967;SDS011;3010;51.028;4.170;2023-01-10T08:55:47;20.87;;;4.70;;
5967;SDS011;3010;51.028;4.170;2023-01-10T08:58:12;23.13;;;6.03;;
5967;SDS011;3010;51.028;4.170;2023-01-10T09:00:39;20.33;;;5.17;;
5967;SDS011;3010;51.028;4.170;2023-01-10T09:03:06;18.57;;;5.10;;
5967;SDS011;3010;51.028;4.170;2023-01-10T09:05:32;22.15;;;6.20;;
5967;SDS011;3010;51.028;4.170;2023-01-10T09:07:59;16.60;;;5.20;;
5967;SDS011;3010;51.028;4.170;2023-01-10T09:10:26;23.35;;;6.32;;
5967;SDS011;3010;51.028;4.170;2023-01-10T09:12:52;16.43;;;5.40;;
5967;SDS011;3010;51.028;4.170;2023-01-10T09:15:22;27.73;;;6.45;;
5967;SDS011;3010;51.028;4.170;2023-01-10T09:17:48;23.03;;;5.23;;
5967;SDS011;3010;51.028;4.170;2023-01-10T09:20:15;22.87;;;5.67;;
5967;SDS011;3010;51.028;4.170;2023-01-10T09:22:41;15.80;;;5.03;;
5967;SDS011;3010;51.028;4.170;2023-01-10T09:25:08;18.67;;;4.87;;
5967;SDS011;3010;51.028;4.170;2023-01-10T09:27:34;20.77;;;4.97;;
5967;SDS011;3010;51.028;4.170;2023-01-10T09:30:01;15.50;;;4.83;;
5967;SDS011;3010;51.028;4.170;2023-01-10T09:32:27;9.27;;;4.90;;
5967;SDS011;3010;51.028;4.170;2023-01-10T09:34:54;22.47;;;4.97;;
5967;SDS011;3010;51.028;4.170;2023-01-10T09:37:21;23.33;;;5.50;;
5967;SDS011;3010;51.028;4.170;2023-01-10T09:39:47;15.30;;;4.67;;
5967;SDS011;3010;51.028;4.170;2023-01-10T09:42:26;21.57;;;4.53;;
5967;SDS011;3010;51.028;4.170;2023-01-10T09:45:02;18.53;;;4.80;;
5967;SDS011;3010;51.028;4.170;2023-01-10T09:47:28;16.87;;;5.20;;
5967;SDS011;3010;51.028;4.170;2023-01-10T09:53:38;18.97;;;5.90;;
5967;SDS011;3010;51.028;4.170;2023-01-10T09:55:41;12.37;;;5.37;;
5967;SDS011;3010;51.028;4.170;2023-01-10T09:58:12;17.80;;;5.03;;
5967;SDS011;3010;51.028;4.170;2023-01-10T10:01:00;15.43;;;4.93;;
5967;SDS011;3010;51.028;4.170;2023-01-10T10:06:04;17.83;;;5.50;;
5967;SDS011;3010;51.028;4.170;2023-01-10T10:08:30;18.27;;;5.40;;
5967;SDS011;3010;51.028;4.170;2023-01-10T10:13:54;17.80;;;4.70;;
5967;SDS011;3010;51.028;4.170;2023-01-10T10:16:24;22.60;;;5.73;;
5967;SDS011;3010;51.028;4.170;2023-01-10T10:22:06;16.70;;;4.90;;
5967;SDS011;3010;51.028;4.170;2023-01-10T10:24:34;21.70;;;6.20;;
5967;SDS011;3010;51.028;4.170;2023-01-10T10:27:21;23.73;;;5.13;;
5967;SDS011;3010;51.028;4.170;2023-01-10T10:32:31;17.50;;;4.90;;
5967;SDS011;3010;51.028;4.170;2023-01-10T10:35:01;27.90;;;5.27;;
5967;SDS011;3010;51.028;4.170;2023-01-10T10:37:27;16.37;;;4.77;;
5967;SDS011;3010;51.028;4.170;2023-01-10T10:39:55;14.20;;;4.50;;
5967;SDS011;3010;51.028;4.170;2023-01-10T10:42:20;15.27;;;4.97;;
5967;SDS011;3010;51.028;4.170;2023-01-10T10:44:59;24.80;;;6.43;;
5967;SDS011;3010;51.028;4.170;2023-01-10T10:47:22;22.63;;;4.40;;
5967;SDS011;3010;51.028;4.170;2023-01-10T10:49:54;15.63;;;5.10;;
5967;SDS011;3010;51.028;4.170;2023-01-10T10:52:32;19.93;;;5.10;;
5967;SDS011;3010;51.028;4.170;2023-01-10T10:54:57;12.20;;;4.43;;
5967;SDS011;3010;51.028;4.170;2023-01-10T10:57:24;20.17;;;4.83;;
5967;SDS011;3010;51.028;4.170;2023-01-10T10:59:50;17.20;;;4.73;;
5967;SDS011;3010;51.028;4.170;2023-01-10T11:02:21;18.43;;;4.83;;
5967;SDS011;3010;51.028;4.170;2023-01-10T11:04:46;19.93;;;4.63;;
5967;SDS011;3010;51.028;4.170;2023-01-10T11:07:14;22.13;;;4.93;;
5967;SDS011;3010;51.028;4.170;2023-01-10T11:09:39;13.77;;;4.67;;
5967;SDS011;3010;51.028;4.170;2023-01-10T11:12:09;14.67;;;4.50;;
5967;SDS011;3010;51.028;4.170;2023-01-10T11:15:06;19.43;;;5.47;;
5967;SDS011;3010;51.028;4.170;2023-01-10T11:17:18;12.70;;;4.27;;
5967;SDS011;3010;51.028;4.170;2023-01-10T11:19:53;21.03;;;5.97;;
5967;SDS011;3010;51.028;4.170;2023-01-10T11:22:26;18.90;;;4.80;;
5967;SDS011;3010;51.028;4.170;2023-01-10T11:25:04;21.02;;;6.00;;
5967;SDS011;3010;51.028;4.170;2023-01-10T11:27:31;11.10;;;4.50;;
5967;SDS011;3010;51.028;4.170;2023-01-10T11:30:07;16.33;;;4.50;;
5967;SDS011;3010;51.028;4.170;2023-01-10T11:32:33;13.90;;;4.57;;
5967;SDS011;3010;51.028;4.170;2023-01-10T11:35:00;16.97;;;4.50;;
5967;SDS011;3010;51.028;4.170;2023-01-10T11:37:35;20.87;;;4.43;;
5967;SDS011;3010;51.028;4.170;2023-01-10T11:42:46;20.20;;;4.97;;
5967;SDS011;3010;51.028;4.170;2023-01-10T11:47:42;16.50;;;4.70;;
5967;SDS011;3010;51.028;4.170;2023-01-10T11:50:09;20.43;;;5.30;;
5967;SDS011;3010;51.028;4.170;2023-01-10T11:52:35;14.80;;;4.50;;
5967;SDS011;3010;51.028;4.170;2023-01-10T11:55:02;20.17;;;4.87;;
5967;SDS011;3010;51.028;4.170;2023-01-10T11:57:29;19.40;;;5.10;;
5967;SDS011;3010;51.028;4.170;2023-01-10T11:59:56;18.80;;;5.20;;
5967;SDS011;3010;51.028;4.170;2023-01-10T12:02:32;16.07;;;5.27;;
5967;SDS011;3010;51.028;4.170;2023-01-10T12:04:57;19.17;;;5.00;;
5967;SDS011;3010;51.028;4.170;2023-01-10T12:07:23;16.43;;;4.47;;
5967;SDS011;3010;51.028;4.170;2023-01-10T12:09:54;22.90;;;6.25;;
5967;SDS011;3010;51.028;4.170;2023-01-10T12:14:46;14.23;;;4.90;;
5967;SDS011;3010;51.028;4.170;2023-01-10T12:17:17;15.13;;;4.83;;
5967;SDS011;3010;51.028;4.170;2023-01-10T12:19:39;15.57;;;5.03;;
5967;SDS011;3010;51.028;4.170;2023-01-10T12:22:05;22.17;;;4.87;;
5967;SDS011;3010;51.028;4.170;2023-01-10T12:24:35;23.67;;;5.57;;
5967;SDS011;3010;51.028;4.170;2023-01-10T12:26:59;22.63;;;5.03;;
5967;SDS011;3010;51.028;4.170;2023-01-10T12:29:31;19.57;;;5.10;;
5967;SDS011;3010;51.028;4.170;2023-01-10T12:31:55;20.13;;;4.80;;
5967;SDS011;3010;51.028;4.170;2023-01-10T12:34:22;14.30;;;4.93;;
5967;SDS011;3010;51.028;4.170;2023-01-10T12:36:49;11.47;;;4.30;;
5967;SDS011;3010;51.028;4.170;2023-01-10T12:39:21;23.90;;;6.50;;
5967;SDS011;3010;51.028;4.170;2023-01-10T12:44:41;20.57;;;5.73;;
5967;SDS011;3010;51.028;4.170;2023-01-10T12:49:43;15.53;;;5.13;;
5967;SDS011;3010;51.028;4.170;2023-01-10T12:52:13;18.03;;;4.77;;
5967;SDS011;3010;51.028;4.170;2023-01-10T12:54:53;20.33;;;5.03;;
5967;SDS011;3010;51.028;4.170;2023-01-10T12:57:25;20.48;;;6.18;;
5967;SDS011;3010;51.028;4.170;2023-01-10T12:59:46;20.83;;;5.50;;
5967;SDS011;3010;51.028;4.170;2023-01-10T13:02:17;22.85;;;6.45;;
5967;SDS011;3010;51.028;4.170;2023-01-10T13:04:42;17.87;;;5.60;;
5967;SDS011;3010;51.028;4.170;2023-01-10T13:07:11;23.47;;;5.10;;
5967;SDS011;3010;51.028;4.170;2023-01-10T13:09:38;19.60;;;5.70;;
5967;SDS011;3010;51.028;4.170;2023-01-10T13:14:45;22.47;;;6.13;;
5967;SDS011;3010;51.028;4.170;2023-01-10T13:22:45;18.00;;;5.37;;
5967;SDS011;3010;51.028;4.170;2023-01-10T13:25:18;12.67;;;4.20;;
5967;SDS011;3010;51.028;4.170;2023-01-10T13:27:47;16.07;;;4.40;;
5967;SDS011;3010;51.028;4.170;2023-01-10T13:30:27;11.43;;;4.73;;
5967;SDS011;3010;51.028;4.170;2023-01-10T13:32:55;16.27;;;3.70;;
5967;SDS011;3010;51.028;4.170;2023-01-10T13:35:21;8.13;;;3.70;;
5967;SDS011;3010;51.028;4.170;2023-01-10T13:37:51;18.50;;;4.57;;
5967;SDS011;3010;51.028;4.170;2023-01-10T13:40:23;14.03;;;4.70;;
5967;SDS011;3010;51.028;4.170;2023-01-10T13:46:04;14.87;;;4.60;;
5967;SDS011;3010;51.028;4.170;2023-01-10T13:48:23;10.37;;;4.00;;
5967;SDS011;3010;51.028;4.170;2023-01-10T13:50:50;15.27;;;4.20;;
5967;SDS011;3010;51.028;4.170;2023-01-10T14:00:42;19.30;;;4.80;;
5967;SDS011;3010;51.028;4.170;2023-01-10T14:08:56;25.35;;;6.25;;
5967;SDS011;3010;51.028;4.170;2023-01-10T14:11:22;16.53;;;5.57;;
5967;SDS011;3010;51.028;4.170;2023-01-10T14:13:52;13.27;;;4.50;;
5967;SDS011;3010;51.028;4.170;2023-01-10T14:16:30;11.47;;;4.57;;
5967;SDS011;3010;51.028;4.170;2023-01-10T14:18:59;10.03;;;3.87;;
5967;SDS011;3010;51.028;4.170;2023-01-10T14:21:26;10.43;;;3.43;;
5967;SDS011;3010;51.028;4.170;2023-01-10T14:23:52;8.20;;;3.90;;
5967;SDS011;3010;51.028;4.170;2023-01-10T14:26:25;9.17;;;4.00;;
5967;SDS011;3010;51.028;4.170;2023-01-10T14:28:53;14.73;;;4.70;;
5967;SDS011;3010;51.028;4.170;2023-01-10T14:31:23;9.87;;;4.50;;
5967;SDS011;3010;51.028;4.170;2023-01-10T14:33:47;8.03;;;3.50;;
5967;SDS011;3010;51.028;4.170;2023-01-10T14:36:21;6.90;;;3.67;;
5967;SDS011;3010;51.028;4.170;2023-01-10T14:38:49;6.10;;;3.37;;
5967;SDS011;3010;51.028;4.170;2023-01-10T14:41:16;7.23;;;3.30;;
5967;SDS011;3010;51.028;4.170;2023-01-10T14:43:43;12.37;;;3.17;;
5967;SDS011;3010;51.028;4.170;2023-01-10T14:46:13;9.55;;;4.15;;
5967;SDS011;3010;51.028;4.170;2023-01-10T14:48:45;8.43;;;3.43;;
5967;SDS011;3010;51.028;4.170;2023-01-10T14:51:17;4.50;;;3.20;;
5967;SDS011;3010;51.028;4.170;2023-01-10T14:53:46;9.27;;;3.27;;
5967;SDS011;3010;51.028;4.170;2023-01-10T14:56:21;4.27;;;3.30;;
5967;SDS011;3010;51.028;4.170;2023-01-10T14:58:44;4.07;;;3.20;;
5967;SDS011;3010;51.028;4.170;2023-01-10T15:01:10;4.20;;;3.50;;
5967;SDS011;3010;51.028;4.170;2023-01-10T15:03:38;4.20;;;3.13;;
5967;SDS011;3010;51.028;4.170;2023-01-10T15:06:04;3.30;;;3.10;;
5967;SDS011;3010;51.028;4.170;2023-01-10T15:08:30;3.73;;;3.20;;
5967;SDS011;3010;51.028;4.170;2023-01-10T15:11:01;3.93;;;3.33;;
5967;SDS011;3010;51.028;4.170;2023-01-10T15:13:29;3.77;;;3.47;;
5967;SDS011;3010;51.028;4.170;2023-01-10T15:15:55;3.60;;;3.30;;
5967;SDS011;3010;51.028;4.170;2023-01-10T15:20:54;4.20;;;3.80;;
5967;SDS011;3010;51.028;4.170;2023-01-10T15:23:21;3.47;;;3.17;;
5967;SDS011;3010;51.028;4.170;2023-01-10T15:25:58;3.60;;;3.40;;
5967;SDS011;3010;51.028;4.170;2023-01-10T15:28:20;3.67;;;3.37;;
5967;SDS011;3010;51.028;4.170;2023-01-10T15:30:46;4.60;;;3.20;;
5967;SDS011;3010;51.028;4.170;2023-01-10T15:33:14;3.37;;;3.17;;
5967;SDS011;3010;51.028;4.170;2023-01-10T15:35:40;4.70;;;3.30;;
5967;SDS011;3010;51.028;4.170;2023-01-10T15:38:07;4.47;;;4.18;;
5967;SDS011;3010;51.028;4.170;2023-01-10T15:40:33;3.77;;;3.47;;
5967;SDS011;3010;51.028;4.170;2023-01-10T15:43:16;4.57;;;3.33;;
5967;SDS011;3010;51.028;4.170;2023-01-10T15:45:35;3.40;;;3.20;;
5967;SDS011;3010;51.028;4.170;2023-01-10T15:48:02;3.57;;;3.37;;
5967;SDS011;3010;51.028;4.170;2023-01-10T15:50:30;3.93;;;3.70;;
5967;SDS011;3010;51.028;4.170;2023-01-10T15:52:58;4.20;;;3.70;;
5967;SDS011;3010;51.028;4.170;2023-01-10T16:00:47;3.57;;;3.37;;
5967;SDS011;3010;51.028;4.170;2023-01-10T16:03:17;3.70;;;3.50;;
5967;SDS011;3010;51.028;4.170;2023-01-10T16:05:56;3.93;;;3.80;;
5967;SDS011;3010;51.028;4.170;2023-01-10T16:08:22;3.83;;;3.73;;
5967;SDS011;3010;51.028;4.170;2023-01-10T16:10:51;4.20;;;4.00;;
5967;SDS011;3010;51.028;4.170;2023-01-10T16:13:20;4.30;;;4.03;;
5967;SDS011;3010;51.028;4.170;2023-01-10T16:15:56;4.00;;;3.80;;
5967;SDS011;3010;51.028;4.170;2023-01-10T16:18:25;4.30;;;4.10;;
5967;SDS011;3010;51.028;4.170;2023-01-10T16:20:52;4.40;;;4.10;;
5967;SDS011;3010;51.028;4.170;2023-01-10T16:23:24;4.23;;;3.93;;
5967;SDS011;3010;51.028;4.170;2023-01-10T16:25:52;5.17;;;4.87;;
5967;SDS011;3010;51.028;4.170;2023-01-10T16:28:22;5.68;;;5.30;;
5967;SDS011;3010;51.028;4.170;2023-01-10T16:30:50;4.45;;;4.25;;
5967;SDS011;3010;51.028;4.170;2023-01-10T16:35:44;3.80;;;3.60;;
5967;SDS011;3010;51.028;4.170;2023-01-10T16:38:10;4.70;;;4.30;;
5967;SDS011;3010;51.028;4.170;2023-01-10T16:40:37;4.40;;;4.10;;
5967;SDS011;3010;51.028;4.170;2023-01-10T16:43:03;4.33;;;4.03;;